Time;durP1;ratioP1;P1;durP2;ratioP2;P2;SDS_P1;SDS_P2;PMS_P1;PMS_P2;Temp;Humidity;BMP_temperature;BMP_pressure;BME280_temperature;BME280_humidity;BME280_pressure;Samples;Min_cycle;Max_cycle;Signal;HPM_P1;HPM_P2
2022/02/07 00:00:17;;;;;;;2.25;1.40;;;21.00;52.20;;;;;;4969006;28;87479;-82
2022/02/07 00:05:24;;;;;;;4.97;1.92;;;21.00;52.10;;;;;;4969869;28;87548;-82
2022/02/07 00:07:50;;;;;;;3.53;1.77;;;21.00;52.10;;;;;;4968771;28;88078;-82
2022/02/07 00:10:16;;;;;;;3.05;1.40;;;21.00;51.90;;;;;;4967948;28;87908;-82
2022/02/07 00:12:41;;;;;;;4.30;1.42;;;21.00;51.90;;;;;;4967365;28;87921;-83
2022/02/07 00:15:10;;;;;;;3.45;1.52;;;21.00;51.90;;;;;;4968748;28;87809;-82
2022/02/07 00:17:36;;;;;;;4.87;2.00;;;21.00;51.80;;;;;;4969038;28;87955;-82
2022/02/07 00:20:07;;;;;;;5.40;1.65;;;21.00;51.60;;;;;;4969412;28;87246;-82
2022/02/07 00:22:43;;;;;;;4.95;1.80;;;21.00;51.60;;;;;;4969635;28;87375;-82
2022/02/07 00:25:09;;;;;;;3.40;1.73;;;21.00;51.50;;;;;;4969384;28;87347;-82
2022/02/07 00:27:35;;;;;;;2.72;1.60;;;21.00;51.30;;;;;;4969581;28;88066;-82
2022/02/07 00:30:06;;;;;;;4.20;1.60;;;21.00;51.40;;;;;;4967313;28;90298;-82
2022/02/07 00:32:31;;;;;;;2.83;1.42;;;20.90;51.40;;;;;;4967506;28;87442;-82
2022/02/07 00:34:57;;;;;;;3.75;1.55;;;20.90;51.10;;;;;;4969397;28;88164;-82
2022/02/07 00:37:25;;;;;;;3.97;1.70;;;20.90;51.10;;;;;;4967174;28;92584;-82
2022/02/07 00:40:03;;;;;;;3.13;1.52;;;20.90;51.10;;;;;;4968532;28;89525;-83
2022/02/07 00:42:33;;;;;;;4.85;1.65;;;20.90;51.00;;;;;;4967850;28;87534;-83
2022/02/07 00:45:13;;;;;;;4.32;2.05;;;20.90;51.00;;;;;;4971707;28;87937;-84
2022/02/07 00:47:39;;;;;;;3.30;1.90;;;20.90;51.00;;;;;;4970290;28;89656;-83
2022/02/07 00:50:04;;;;;;;3.40;1.65;;;20.90;51.00;;;;;;4971564;28;87706;-83
2022/02/07 00:52:30;;;;;;;3.47;1.60;;;20.90;50.90;;;;;;4971822;28;87159;-83
2022/02/07 00:54:56;;;;;;;4.15;1.80;;;20.90;50.90;;;;;;4972176;28;87227;-83
2022/02/07 00:57:21;;;;;;;3.88;2.17;;;20.80;50.90;;;;;;4971101;28;90450;-83
2022/02/07 00:59:47;;;;;;;3.17;1.40;;;20.80;50.80;;;;;;4970604;28;89838;-82
2022/02/07 01:02:13;;;;;;;3.15;1.48;;;20.80;51.00;;;;;;4970560;28;89713;-83
2022/02/07 01:04:38;;;;;;;3.55;1.60;;;20.80;50.80;;;;;;4972250;28;87331;-83
2022/02/07 01:07:07;;;;;;;4.13;1.75;;;20.80;50.80;;;;;;4972516;28;87598;-80
2022/02/07 01:09:41;;;;;;;3.50;1.50;;;20.80;50.70;;;;;;4972465;28;87763;-83
2022/02/07 01:14:51;;;;;;;3.85;1.60;;;20.80;50.80;;;;;;4971660;28;87474;-82
2022/02/07 01:21:03;;;;;;;2.78;1.42;;;20.80;50.80;;;;;;4972156;28;87625;-83
2022/02/07 01:48:14;;;;;;;3.88;1.90;;;20.70;50.80;;;;;;4971583;28;86112;-82
2022/02/07 01:55:57;;;;;;;3.45;1.80;;;20.70;51.40;;;;;;4969968;28;88424;-82
2022/02/07 01:58:23;;;;;;;4.45;1.80;;;20.70;51.40;;;;;;4970790;28;86997;-82
2022/02/07 02:00:50;;;;;;;4.63;1.95;;;20.70;51.40;;;;;;4967754;28;91126;-83
2022/02/07 02:03:15;;;;;;;3.90;1.85;;;20.70;51.60;;;;;;4971237;28;87055;-82
2022/02/07 02:05:41;;;;;;;4.82;1.95;;;20.70;51.50;;;;;;4971349;28;87312;-83
2022/02/07 02:08:09;;;;;;;3.72;1.85;;;20.70;51.60;;;;;;4971533;28;87620;-82
2022/02/07 02:10:37;;;;;;;2.92;1.60;;;20.70;51.50;;;;;;4971745;28;87933;-83
2022/02/07 02:13:29;;;;;;;5.55;2.13;;;20.60;51.50;;;;;;4971235;28;87490;-82
2022/02/07 02:16:07;;;;;;;5.43;1.80;;;20.70;51.60;;;;;;4970617;28;87473;-82
2022/02/07 02:19:13;;;;;;;3.35;1.70;;;20.70;51.60;;;;;;4970147;28;87878;-82
2022/02/07 02:22:20;;;;;;;5.43;1.67;;;20.70;51.50;;;;;;4968743;28;89833;-82
2022/02/07 02:38:13;;;;;;;5.18;1.63;;;20.60;50.70;;;;;;4971331;28;87626;-83
2022/02/07 02:46:09;;;;;;;5.72;1.65;;;20.50;50.30;;;;;;4970994;28;87636;-83
2022/02/07 02:48:41;;;;;;;4.45;1.88;;;20.50;50.30;;;;;;4970059;28;88678;-83
2022/02/07 02:51:10;;;;;;;4.47;1.50;;;20.40;50.20;;;;;;4967561;28;90059;-83
2022/02/07 02:53:38;;;;;;;6.10;1.85;;;20.40;50.20;;;;;;4969693;28;88039;-83
2022/02/07 02:56:04;;;;;;;4.63;1.90;;;20.40;50.20;;;;;;4969282;28;87188;-83
2022/02/07 02:58:30;;;;;;;4.63;1.55;;;20.40;49.60;;;;;;4969804;28;88068;-82
2022/02/07 03:00:56;;;;;;;5.72;1.88;;;20.40;49.70;;;;;;4969950;28;87501;-83
2022/02/07 03:03:21;;;;;;;5.30;1.77;;;20.40;49.80;;;;;;4970299;28;87920;-83
2022/02/07 03:05:48;;;;;;;5.45;1.75;;;20.40;49.90;;;;;;4970804;28;87334;-83
2022/02/07 03:08:15;;;;;;;3.83;1.65;;;20.40;49.60;;;;;;4969089;28;87009;-82
2022/02/07 03:18:37;;;;;;;4.75;1.90;;;20.40;49.80;;;;;;4970176;28;87221;-82
2022/02/07 03:21:04;;;;;;;4.93;2.00;;;20.40;49.40;;;;;;4968208;28;89339;-83
2022/02/07 03:23:30;;;;;;;5.47;1.92;;;20.40;49.60;;;;;;4969275;28;89481;-83
2022/02/07 03:25:56;;;;;;;3.53;1.48;;;20.40;49.50;;;;;;4969708;28;87870;-82
2022/02/07 03:28:27;;;;;;;4.13;1.75;;;20.30;49.10;;;;;;4969904;28;87403;-83
2022/02/07 03:30:53;;;;;;;3.72;1.80;;;20.40;49.10;;;;;;4969805;28;86680;-83
2022/02/07 03:33:19;;;;;;;4.10;1.77;;;20.40;49.30;;;;;;4968232;28;90764;-83
2022/02/07 03:35:45;;;;;;;4.93;1.70;;;20.40;50.00;;;;;;4969210;28;88214;-83
2022/02/07 03:38:12;;;;;;;4.57;1.63;;;20.30;48.80;;;;;;4968683;28;88674;-83
2022/02/07 03:40:39;;;;;;;4.35;1.90;;;20.40;49.20;;;;;;4967432;28;89131;-82
2022/02/07 03:43:05;;;;;;;5.40;1.67;;;20.30;49.10;;;;;;4969807;28;88172;-83
2022/02/07 03:45:31;;;;;;;3.78;1.60;;;20.30;49.20;;;;;;5009800;22;87023;-82
2022/02/07 03:47:57;;;;;;;3.65;1.58;;;20.30;49.10;;;;;;4968302;28;87871;-82
2022/02/07 03:50:23;;;;;;;5.28;1.80;;;20.30;48.90;;;;;;4968948;28;86920;-83
2022/02/07 03:52:50;;;;;;;3.83;1.85;;;20.30;48.80;;;;;;4969542;28;88160;-83
2022/02/07 03:55:16;;;;;;;3.28;1.52;;;20.30;49.10;;;;;;4970429;28;87254;-84
2022/02/07 03:57:49;;;;;;;3.97;1.90;;;20.30;49.00;;;;;;4968168;28;87965;-83
2022/02/07 04:00:16;;;;;;;4.07;1.60;;;20.30;49.00;;;;;;4967751;28;89683;-83
2022/02/07 04:02:45;;;;;;;3.55;1.60;;;20.30;49.10;;;;;;4969110;28;89036;-82
2022/02/07 04:07:55;;;;;;;4.57;1.67;;;20.30;48.80;;;;;;4971404;28;86976;-84
2022/02/07 04:10:22;;;;;;;5.00;1.77;;;20.30;48.60;;;;;;4968776;28;88219;-83
2022/02/07 04:12:54;;;;;;;3.67;1.35;;;20.30;48.90;;;;;;4969456;28;88135;-83
2022/02/07 04:15:20;;;;;;;3.25;1.63;;;20.30;48.80;;;;;;4969678;28;87761;-84
2022/02/07 04:17:53;;;;;;;5.50;2.00;;;20.30;48.80;;;;;;4985628;28;86981;-83
2022/02/07 04:20:26;;;;;;;4.95;1.50;;;20.30;48.30;;;;;;4971171;28;91038;-84
2022/02/07 04:22:52;;;;;;;4.22;1.70;;;20.20;48.50;;;;;;4971835;28;89224;-84
2022/02/07 04:25:18;;;;;;;6.50;2.10;;;20.30;48.50;;;;;;4973229;28;87668;-83
2022/02/07 04:27:44;;;;;;;3.70;1.63;;;20.20;48.10;;;;;;4973286;28;88715;-83
2022/02/07 04:30:10;;;;;;;3.72;1.33;;;20.20;48.20;;;;;;4973279;28;88398;-83
2022/02/07 04:32:36;;;;;;;5.97;1.63;;;20.30;48.70;;;;;;4972570;28;88200;-83
2022/02/07 04:35:02;;;;;;;5.72;1.88;;;20.20;48.20;;;;;;4972823;28;87949;-84
2022/02/07 04:37:28;;;;;;;4.40;2.08;;;20.20;48.20;;;;;;4972659;28;87344;-84
2022/02/07 04:39:54;;;;;;;2.85;1.40;;;20.20;48.00;;;;;;4988088;28;88971;-84
2022/02/07 04:42:22;;;;;;;3.40;1.58;;;20.20;48.20;;;;;;4972240;28;88138;-83
2022/02/07 04:57:59;;;;;;;4.55;1.58;;;20.10;48.50;;;;;;4980147;28;87937;-83
2022/02/07 05:00:35;;;;;;;5.65;1.80;;;20.10;48.60;;;;;;4970605;28;87536;-83
2022/02/07 05:03:19;;;;;;;5.55;1.45;;;20.10;48.30;;;;;;4972020;28;87512;-83
2022/02/07 05:13:50;;;;;;;4.07;1.45;;;20.10;48.70;;;;;;4972659;28;87697;-83
2022/02/07 05:16:25;;;;;;;4.95;1.90;;;20.10;48.60;;;;;;4970153;28;90275;-83
2022/02/07 05:18:55;;;;;;;3.22;1.60;;;20.10;48.70;;;;;;4971631;28;88880;-84
2022/02/07 05:21:22;;;;;;;2.63;1.20;;;20.10;48.60;;;;;;4970109;28;89501;-83
2022/02/07 05:23:48;;;;;;;2.22;1.30;;;20.00;48.70;;;;;;4972425;28;87724;-82
2022/02/07 05:26:14;;;;;;;4.20;1.80;;;20.00;48.70;;;;;;4970808;28;89339;-82
2022/02/07 05:28:39;;;;;;;2.67;1.10;;;20.00;48.50;;;;;;4972087;28;87585;-82
2022/02/07 05:31:05;;;;;;;3.35;1.58;;;20.00;48.60;;;;;;4970483;28;87534;-83
2022/02/07 05:33:31;;;;;;;3.17;1.55;;;20.00;48.30;;;;;;4971268;28;88003;-82
2022/02/07 05:35:57;;;;;;;4.50;1.52;;;20.00;48.50;;;;;;4970659;28;89918;-83
2022/02/07 05:38:24;;;;;;;3.20;1.38;;;20.00;48.30;;;;;;4972516;28;87688;-83
2022/02/07 05:40:57;;;;;;;3.65;1.60;;;20.00;48.40;;;;;;4972141;28;86943;-83
2022/02/07 05:43:23;;;;;;;2.55;1.35;;;20.00;48.30;;;;;;4971601;28;89085;-83
2022/02/07 05:45:56;;;;;;;8.57;1.70;;;20.00;48.30;;;;;;4971746;28;88315;-84
2022/02/07 05:48:22;;;;;;;4.35;1.80;;;20.00;48.40;;;;;;4972401;28;87019;-83
2022/02/07 05:50:47;;;;;;;3.58;1.40;;;20.00;48.00;;;;;;4971873;28;87317;-83
2022/02/07 05:53:13;;;;;;;4.15;1.60;;;20.00;48.40;;;;;;4971311;28;87894;-83
2022/02/07 05:55:38;;;;;;;4.95;1.73;;;20.00;48.40;;;;;;4970912;28;87689;-83
2022/02/07 05:58:04;;;;;;;4.00;1.45;;;20.00;48.40;;;;;;4970217;28;88260;-84
2022/02/07 06:00:33;;;;;;;3.95;1.45;;;20.00;48.20;;;;;;4971221;28;86767;-83
2022/02/07 06:03:03;;;;;;;5.63;1.85;;;19.90;48.20;;;;;;4985454;28;90221;-83
2022/02/07 06:05:29;;;;;;;4.95;1.33;;;20.00;48.00;;;;;;4970013;28;88169;-83
2022/02/07 06:07:54;;;;;;;4.30;1.67;;;19.90;48.10;;;;;;4969884;28;88404;-83
2022/02/07 06:10:20;;;;;;;3.20;1.33;;;19.90;47.90;;;;;;4969584;28;87167;-82
2022/02/07 06:12:47;;;;;;;4.53;1.83;;;19.90;47.90;;;;;;4970426;28;87580;-83
2022/02/07 06:15:13;;;;;;;3.47;1.40;;;19.90;47.90;;;;;;4971510;28;87807;-83
2022/02/07 06:17:40;;;;;;;4.85;1.70;;;19.90;48.00;;;;;;4971252;28;87476;-83
2022/02/07 06:20:06;;;;;;;4.18;1.50;;;19.90;47.60;;;;;;4969609;28;88140;-83
2022/02/07 06:22:32;;;;;;;3.45;1.40;;;19.90;47.60;;;;;;4970294;28;88165;-83
2022/02/07 06:24:57;;;;;;;3.17;1.42;;;19.90;47.50;;;;;;4971320;28;87868;-83
2022/02/07 06:27:30;;;;;;;3.22;1.60;;;19.90;47.40;;;;;;4970337;28;87877;-84
2022/02/07 06:29:56;;;;;;;4.13;1.52;;;19.90;47.50;;;;;;4970789;28;87865;-84
2022/02/07 06:32:22;;;;;;;2.63;1.40;;;19.90;47.60;;;;;;4970027;28;89029;-83
2022/02/07 06:34:48;;;;;;;4.82;1.70;;;19.90;47.60;;;;;;4970814;28;88049;-83
2022/02/07 06:37:13;;;;;;;3.22;1.33;;;19.90;47.70;;;;;;4971325;28;87391;-83
2022/02/07 06:39:39;;;;;;;4.25;1.67;;;19.90;47.70;;;;;;4970319;28;87421;-84
2022/02/07 06:42:05;;;;;;;2.35;1.30;;;19.90;47.60;;;;;;4967640;28;88281;-83
2022/02/07 06:44:31;;;;;;;2.78;1.35;;;19.80;47.70;;;;;;4968555;28;88711;-83
2022/02/07 06:46:56;;;;;;;4.75;1.67;;;19.90;47.50;;;;;;4971460;28;87804;-83
2022/02/07 06:49:22;;;;;;;4.22;1.50;;;19.90;47.50;;;;;;4970504;28;87001;-84
2022/02/07 06:51:48;;;;;;;4.97;1.48;;;19.80;47.50;;;;;;4970100;28;88134;-83
2022/02/07 06:54:14;;;;;;;3.33;1.60;;;19.80;47.40;;;;;;4970593;28;88136;-83
2022/02/07 06:56:41;;;;;;;4.35;1.63;;;19.80;47.60;;;;;;4970036;28;88645;-83
2022/02/07 06:59:07;;;;;;;4.57;1.60;;;19.80;47.60;;;;;;4970841;28;87801;-82
2022/02/07 07:01:33;;;;;;;4.38;1.88;;;19.80;47.50;;;;;;4970482;28;87974;-83
2022/02/07 07:03:59;;;;;;;4.40;1.60;;;19.80;47.40;;;;;;4970439;28;87548;-83
2022/02/07 07:06:24;;;;;;;3.30;1.20;;;19.80;47.40;;;;;;4969148;28;87884;-82
2022/02/07 07:08:54;;;;;;;3.70;1.40;;;19.80;47.30;;;;;;4970150;28;87332;-82
2022/02/07 07:11:28;;;;;;;2.78;1.50;;;19.80;47.10;;;;;;4968995;28;90687;-84
2022/02/07 07:14:14;;;;;;;4.50;1.65;;;19.80;47.30;;;;;;4969017;28;90541;-83
2022/02/07 07:16:50;;;;;;;3.63;1.40;;;19.80;47.30;;;;;;4970124;28;87167;-84
2022/02/07 07:19:17;;;;;;;3.83;1.40;;;19.80;47.60;;;;;;4970060;28;87828;-82
2022/02/07 07:21:43;;;;;;;3.45;1.48;;;19.80;47.20;;;;;;4968405;28;89041;-84
2022/02/07 07:24:09;;;;;;;3.90;1.55;;;19.80;47.40;;;;;;4969930;28;88242;-82
2022/02/07 07:26:36;;;;;;;4.15;1.60;;;19.80;47.40;;;;;;4970140;28;87040;-83
2022/02/07 07:29:08;;;;;;;4.15;1.83;;;19.70;47.20;;;;;;4968340;28;89077;-83
2022/02/07 07:31:40;;;;;;;4.40;1.30;;;19.80;47.20;;;;;;4968990;28;88069;-83
2022/02/07 07:34:05;;;;;;;3.65;1.50;;;19.70;47.40;;;;;;4983852;28;89541;-82
2022/02/07 07:36:31;;;;;;;3.55;1.52;;;19.70;47.80;;;;;;4984896;28;87344;-83
2022/02/07 07:38:57;;;;;;;3.88;1.48;;;19.80;47.80;;;;;;4970240;28;87259;-83
2022/02/07 07:41:23;;;;;;;2.88;1.48;;;19.70;47.30;;;;;;4969819;28;87013;-83
2022/02/07 07:43:50;;;;;;;4.95;1.60;;;19.70;47.20;;;;;;4968483;28;89759;-82
2022/02/07 07:46:19;;;;;;;6.45;2.00;;;19.70;47.30;;;;;;4967267;28;88637;-83
2022/02/07 07:48:54;;;;;;;3.50;1.40;;;19.70;47.20;;;;;;4970324;28;87658;-82
2022/02/07 07:51:33;;;;;;;4.15;1.35;;;19.70;47.20;;;;;;4969766;28;87918;-83
2022/02/07 07:54:15;;;;;;;6.10;1.65;;;19.70;47.50;;;;;;4969029;28;87732;-83
2022/02/07 08:02:12;;;;;;;5.38;1.60;;;19.80;48.70;;;;;;4972234;28;87629;-82
2022/02/07 08:04:40;;;;;;;3.92;1.73;;;19.90;48.80;;;;;;4969620;28;87438;-82
2022/02/07 08:07:14;;;;;;;4.22;1.38;;;19.90;48.80;;;;;;4970285;28;87846;-83
2022/02/07 08:09:59;;;;;;;5.50;1.90;;;20.00;49.60;;;;;;4968573;28;87140;-83
2022/02/07 08:12:24;;;;;;;4.93;1.23;;;20.00;49.80;;;;;;4968681;28;89019;-83
2022/02/07 08:14:50;;;;;;;9.85;1.73;;;20.10;49.80;;;;;;4968892;28;87913;-83
2022/02/07 08:17:18;;;;;;;7.97;1.88;;;20.10;49.20;;;;;;4969330;28;87489;-83
2022/02/07 08:19:46;;;;;;;6.07;1.70;;;20.20;49.10;;;;;;4970851;28;87837;-83
2022/02/07 08:22:11;;;;;;;11.35;2.20;;;20.20;49.00;;;;;;4970573;28;89925;-83
2022/02/07 08:24:38;;;;;;;6.03;2.05;;;20.30;48.60;;;;;;4971564;28;87649;-83
2022/02/07 08:27:04;;;;;;;6.00;1.98;;;20.30;48.60;;;;;;4965513;28;87077;-81
2022/02/07 08:29:31;;;;;;;16.15;1.92;;;20.30;49.60;;;;;;4985354;28;89731;-83
2022/02/07 08:31:57;;;;;;;5.50;1.80;;;20.40;48.90;;;;;;4969204;28;87707;-83
2022/02/07 08:34:23;;;;;;;4.18;1.63;;;20.40;48.80;;;;;;4969021;28;87716;-83
2022/02/07 08:36:48;;;;;;;4.95;1.85;;;20.40;48.10;;;;;;4968185;28;87898;-84
2022/02/07 08:39:32;;;;;;;5.18;1.85;;;20.40;47.80;;;;;;4969323;28;87206;-83
2022/02/07 08:41:57;;;;;;;7.15;2.25;;;20.40;47.80;;;;;;4969048;28;88060;-84
2022/02/07 08:44:24;;;;;;;6.15;1.98;;;20.40;47.20;;;;;;4939817;28;88016;-84
2022/02/07 08:46:49;;;;;;;42.67;6.68;;;20.40;48.50;;;;;;4955415;28;87042;-82
2022/02/07 08:49:15;;;;;;;111.82;17.35;;;20.40;48.60;;;;;;4966357;28;89587;-84
2022/02/07 08:51:41;;;;;;;94.45;14.40;;;20.40;47.10;;;;;;4967783;28;87638;-83
2022/02/07 08:54:08;;;;;;;61.10;10.57;;;20.40;46.90;;;;;;4969012;28;87963;-83
2022/02/07 08:56:51;;;;;;;53.22;10.13;;;20.40;47.50;;;;;;4967958;28;87010;-83
2022/02/07 08:59:17;;;;;;;49.13;8.50;;;20.40;48.20;;;;;;4968089;28;87401;-83
2022/02/07 09:02:19;;;;;;;45.30;9.45;;;20.50;49.20;;;;;;4968236;28;88977;-81
2022/02/07 09:04:55;;;;;;;36.50;8.00;;;20.50;49.60;;;;;;4968397;28;88552;-84
2022/02/07 09:07:31;;;;;;;37.80;8.13;;;20.50;50.10;;;;;;4971605;28;87541;-84
2022/02/07 09:09:57;;;;;;;29.70;7.18;;;20.50;50.70;;;;;;4971637;28;87831;-83
2022/02/07 09:12:23;;;;;;;24.00;6.05;;;20.60;50.80;;;;;;4969952;28;88000;-83
2022/02/07 09:17:41;;;;;;;24.42;5.78;;;20.60;49.80;;;;;;4963300;28;87009;-83
2022/02/07 09:20:07;;;;;;;31.15;6.38;;;20.50;48.50;;;;;;4970348;28;86871;-83
2022/02/07 09:22:32;;;;;;;31.38;7.40;;;20.50;48.60;;;;;;4970631;28;87957;-83
2022/02/07 09:24:58;;;;;;;35.63;7.53;;;20.60;50.00;;;;;;4890015;28;88604;-83
2022/02/07 09:27:24;;;;;;;28.30;8.05;;;20.60;51.10;;;;;;4945058;28;88607;-83
2022/02/07 09:29:49;;;;;;;42.85;9.68;;;20.60;53.10;;;;;;4964560;28;89406;-81
2022/02/07 09:32:15;;;;;;;27.48;7.80;;;20.60;54.10;;;;;;4983181;28;91031;-82
2022/02/07 09:34:40;;;;;;;28.63;7.22;;;20.60;54.00;;;;;;4969332;28;87731;-82
2022/02/07 09:37:06;;;;;;;30.75;7.07;;;20.50;53.30;;;;;;4970315;28;87715;-81
2022/02/07 09:39:32;;;;;;;24.13;5.97;;;20.60;52.30;;;;;;4969622;28;87449;-81
2022/02/07 09:41:59;;;;;;;26.73;5.68;;;20.60;51.80;;;;;;4966828;28;88716;-83
2022/02/07 09:44:29;;;;;;;19.10;6.15;;;20.60;51.40;;;;;;4970483;28;87757;-85
2022/02/07 09:46:55;;;;;;;20.88;5.82;;;20.60;51.30;;;;;;4970910;28;87362;-84
2022/02/07 09:49:24;;;;;;;20.40;5.47;;;20.60;50.40;;;;;;4970674;28;87398;-83
2022/02/07 09:51:57;;;;;;;18.00;4.93;;;20.60;49.90;;;;;;4968305;28;88527;-83
2022/02/07 09:54:23;;;;;;;17.75;5.35;;;20.60;49.60;;;;;;4971102;28;88529;-82
2022/02/07 09:56:50;;;;;;;19.42;5.15;;;20.60;50.40;;;;;;4971081;28;87344;-82
2022/02/07 09:59:16;;;;;;;19.77;5.50;;;20.60;50.00;;;;;;4970462;28;87766;-82
2022/02/07 10:01:49;;;;;;;16.08;5.57;;;20.60;49.80;;;;;;4969045;28;87821;-82
2022/02/07 10:04:26;;;;;;;20.80;5.25;;;20.60;49.70;;;;;;4969438;28;87882;-82
2022/02/07 10:07:13;;;;;;;18.33;4.80;;;20.50;49.10;;;;;;4969926;28;87286;-83
2022/02/07 10:15:23;;;;;;;14.82;5.35;;;20.60;48.90;;;;;;4970775;28;87292;-82
2022/02/07 10:20:39;;;;;;;17.45;4.95;;;20.60;49.10;;;;;;4969508;28;87967;-82
2022/02/07 10:34:32;;;;;;;21.90;6.17;;;20.60;50.00;;;;;;4969857;28;88829;-83
2022/02/07 10:40:26;;;;;;;18.50;5.22;;;20.70;51.40;;;;;;4970203;28;87765;-83
2022/02/07 10:48:36;;;;;;;18.33;4.80;;;20.70;50.60;;;;;;4961966;28;88324;-82
2022/02/07 10:51:27;;;;;;;17.92;4.90;;;20.70;50.10;;;;;;4970374;28;87844;-83
2022/02/07 10:53:57;;;;;;;14.43;4.20;;;20.70;50.00;;;;;;4970372;28;87740;-83
2022/02/07 10:56:42;;;;;;;13.48;4.53;;;20.70;50.00;;;;;;4969533;28;87849;-84
2022/02/07 10:59:11;;;;;;;12.60;4.22;;;20.70;50.20;;;;;;4969882;28;87964;-83
2022/02/07 11:04:14;;;;;;;11.85;4.20;;;20.70;50.50;;;;;;4964730;28;87505;-83
2022/02/07 11:06:47;;;;;;;12.25;3.92;;;20.70;50.60;;;;;;4968845;28;91023;-83
2022/02/07 11:27:37;;;;;;;11.55;4.15;;;20.70;51.30;;;;;;4970417;28;87498;-83
2022/02/07 11:30:07;;;;;;;;;;;20.70;51.50;;;;;;4970438;28;88279;-82
2022/02/07 11:32:57;;;;;;;15.45;4.47;;;20.70;51.50;;;;;;4971012;28;88409;-82
2022/02/07 11:35:30;;;;;;;12.43;4.32;;;20.80;51.10;;;;;;4968298;28;89489;-83
2022/02/07 11:38:02;;;;;;;11.15;3.92;;;20.80;51.70;;;;;;4968116;28;91525;-82
2022/02/07 11:40:34;;;;;;;13.63;4.22;;;20.80;51.70;;;;;;4969288;28;88448;-82
2022/02/07 11:43:19;;;;;;;18.98;4.30;;;20.80;51.50;;;;;;4968755;28;87748;-83
2022/02/07 11:45:54;;;;;;;14.27;5.60;;;20.80;51.40;;;;;;4986190;28;89881;-82
2022/02/07 11:48:39;;;;;;;12.02;3.80;;;20.80;51.80;;;;;;4969231;28;89490;-83
2022/02/07 11:51:14;;;;;;;12.68;3.72;;;20.80;51.40;;;;;;4965018;28;87456;-83
2022/02/07 11:53:50;;;;;;;14.27;4.45;;;20.80;51.60;;;;;;4969916;28;88026;-83
2022/02/07 11:56:37;;;;;;;9.43;3.42;;;20.80;51.30;;;;;;4969591;28;87011;-83
2022/02/07 12:01:48;;;;;;;9.57;3.47;;;20.80;51.50;;;;;;4968560;28;88404;-83
2022/02/07 12:04:25;;;;;;;14.73;3.95;;;20.80;51.70;;;;;;4968646;28;88756;-83
2022/02/07 12:07:25;;;;;;;17.70;4.18;;;20.80;51.70;;;;;;4968406;28;87524;-83
2022/02/07 12:10:14;;;;;;;11.38;3.72;;;20.80;51.20;;;;;;4954292;28;87495;-82
2022/02/07 12:12:50;;;;;;;18.08;3.97;;;20.80;50.00;;;;;;4968386;28;87783;-83
2022/02/07 12:15:22;;;;;;;14.60;3.92;;;20.80;48.70;;;;;;4968133;28;87347;-82
2022/02/07 12:17:57;;;;;;;15.40;4.55;;;20.80;49.70;;;;;;4966258;28;90942;-83
2022/02/07 12:20:29;;;;;;;16.23;4.25;;;20.80;50.40;;;;;;4966150;28;91378;-83
2022/02/07 12:23:09;;;;;;;14.05;4.50;;;20.80;50.40;;;;;;4968466;28;87588;-83
2022/02/07 12:25:59;;;;;;;12.23;3.97;;;20.80;50.50;;;;;;4969038;28;87054;-82
2022/02/07 12:31:21;;;;;;;11.20;3.10;;;20.70;48.30;;;;;;4968610;28;88289;-83
2022/02/07 12:33:53;;;;;;;12.25;3.65;;;20.80;46.90;;;;;;4968735;28;88482;-83
2022/02/07 12:36:20;;;;;;;10.35;3.13;;;20.70;46.20;;;;;;4968705;28;87202;-83
2022/02/07 12:38:46;;;;;;;6.82;2.75;;;20.80;46.80;;;;;;4968740;28;87588;-83
2022/02/07 12:41:15;;;;;;;7.70;2.63;;;20.70;46.10;;;;;;4971364;28;88012;-82
2022/02/07 12:43:44;;;;;;;10.02;2.67;;;20.70;46.00;;;;;;4970607;28;87977;-83
2022/02/07 12:46:12;;;;;;;9.30;2.85;;;20.70;46.00;;;;;;4971467;28;87773;-82
2022/02/07 12:48:50;;;;;;;8.20;3.30;;;20.70;45.40;;;;;;4973099;28;87073;-83
2022/02/07 12:51:19;;;;;;;11.15;2.90;;;20.70;45.20;;;;;;4969318;28;91400;-82
2022/02/07 12:53:45;;;;;;;7.13;2.70;;;20.70;45.40;;;;;;4971900;28;88390;-83
2022/02/07 12:56:11;;;;;;;11.63;3.05;;;20.70;45.60;;;;;;4971456;28;88480;-83
2022/02/07 12:58:42;;;;;;;8.75;2.75;;;20.70;44.80;;;;;;4971787;28;87845;-82
2022/02/07 13:01:29;;;;;;;8.40;2.58;;;20.70;45.20;;;;;;4972021;28;89019;-83
2022/02/07 13:04:15;;;;;;;8.63;3.13;;;20.70;45.10;;;;;;4972503;28;87662;-82
2022/02/07 13:06:47;;;;;;;10.45;2.92;;;20.70;44.80;;;;;;4987559;28;87437;-83
2022/02/07 13:09:17;;;;;;;8.38;2.58;;;20.70;43.80;;;;;;4971872;28;87880;-82
2022/02/07 13:11:48;;;;;;;9.68;2.83;;;20.70;43.40;;;;;;4971022;28;87463;-82
2022/02/07 13:14:16;;;;;;;6.30;2.38;;;20.70;43.30;;;;;;4971915;28;86866;-82
2022/02/07 13:16:43;;;;;;;10.85;2.70;;;20.70;43.50;;;;;;4970711;28;87602;-82
2022/02/07 13:19:20;;;;;;;8.40;2.78;;;20.70;43.60;;;;;;4971454;28;87542;-82
2022/02/07 13:21:51;;;;;;;7.10;2.42;;;20.70;43.60;;;;;;4970722;28;88941;-82
2022/02/07 13:24:27;;;;;;;10.15;2.90;;;20.60;38.20;;;;;;4969643;28;91348;-82
2022/02/07 13:26:55;;;;;;;10.35;2.33;;;20.40;41.80;;;;;;4971849;28;87593;-82
2022/02/07 13:29:29;;;;;;;11.93;2.88;;;20.60;43.20;;;;;;4971318;28;87230;-83
2022/02/07 13:31:58;;;;;;;6.75;2.15;;;20.60;43.80;;;;;;4971209;28;87842;-82
2022/02/07 13:34:26;;;;;;;10.02;2.25;;;20.70;44.40;;;;;;4970514;28;88332;-82
2022/02/07 13:36:53;;;;;;;8.55;2.20;;;20.80;44.10;;;;;;4970121;28;87879;-82
2022/02/07 13:39:20;;;;;;;9.60;2.10;;;20.80;43.00;;;;;;4971964;28;86885;-82
2022/02/07 13:42:08;;;;;;;7.00;2.25;;;20.90;42.60;;;;;;5001437;22;89001;-82
2022/02/07 13:44:42;;;;;;;8.45;2.33;;;20.90;43.40;;;;;;4937036;28;87357;-82
2022/02/07 13:47:08;;;;;;;8.52;2.35;;;21.00;42.50;;;;;;4935905;28;89271;-83
2022/02/07 13:49:58;;;;;;;7.40;2.08;;;20.90;42.40;;;;;;4931661;28;87427;-81
2022/02/07 13:52:32;;;;;;;8.35;2.30;;;21.00;43.00;;;;;;4932604;28;87663;-82
2022/02/07 13:55:26;;;;;;;8.07;2.70;;;21.00;42.40;;;;;;4933314;28;88719;-83
2022/02/07 13:57:55;;;;;;;7.53;2.50;;;21.00;41.80;;;;;;4932384;28;87779;-83
2022/02/07 14:00:23;;;;;;;9.15;2.53;;;21.00;42.00;;;;;;4932307;28;87500;-82
2022/02/07 14:03:09;;;;;;;7.28;1.85;;;21.00;42.70;;;;;;4917258;28;89439;-81
2022/02/07 14:05:48;;;;;;;8.80;2.05;;;21.00;44.00;;;;;;4947611;28;87316;-81
2022/02/07 14:08:15;;;;;;;11.82;2.60;;;21.00;44.10;;;;;;4933422;28;87539;-81
2022/02/07 14:10:45;;;;;;;6.03;2.17;;;21.00;44.00;;;;;;4930217;28;87627;-83
2022/02/07 14:13:14;;;;;;;4.70;1.70;;;21.00;44.30;;;;;;4929448;28;88896;-82
2022/02/07 14:15:42;;;;;;;6.13;2.20;;;21.10;44.20;;;;;;4928056;28;88918;-82
2022/02/07 14:18:10;;;;;;;7.75;2.20;;;21.10;44.30;;;;;;4930698;28;87718;-82
2022/02/07 14:20:37;;;;;;;10.00;2.87;;;21.10;44.20;;;;;;4931213;28;87737;-82
2022/02/07 14:23:07;;;;;;;7.43;2.22;;;21.10;43.90;;;;;;4930779;28;88074;-81
2022/02/07 14:25:33;;;;;;;9.45;2.33;;;21.10;43.80;;;;;;4928633;28;88106;-81
2022/02/07 14:28:01;;;;;;;7.25;2.33;;;21.10;44.40;;;;;;4931713;28;87834;-81
2022/02/07 14:30:30;;;;;;;11.20;2.75;;;21.10;44.30;;;;;;4928122;28;88285;-82
2022/02/07 14:32:57;;;;;;;7.75;2.33;;;21.10;44.90;;;;;;4931315;28;88108;-82
2022/02/07 14:35:23;;;;;;;8.32;2.25;;;21.10;45.30;;;;;;4925918;28;88503;-81
2022/02/07 14:37:48;;;;;;;7.05;2.13;;;21.10;46.50;;;;;;4931386;28;87901;-82
2022/02/07 14:40:15;;;;;;;8.75;2.53;;;21.10;43.90;;;;;;4931461;28;86956;-82
2022/02/07 14:42:46;;;;;;;7.85;2.38;;;21.00;43.70;;;;;;4930456;28;88119;-82
2022/02/07 14:45:17;;;;;;;6.18;2.22;;;21.00;43.80;;;;;;4929320;28;89846;-82
2022/02/07 14:50:17;;;;;;;7.25;2.60;;;21.10;45.40;;;;;;4928482;28;87721;-82
2022/02/07 14:52:43;;;;;;;9.07;2.50;;;21.10;45.90;;;;;;4927307;28;88612;-82
2022/02/07 14:55:09;;;;;;;7.10;2.38;;;21.10;45.90;;;;;;4930502;28;87954;-82
2022/02/07 14:57:35;;;;;;;6.63;1.88;;;21.10;46.10;;;;;;4927410;28;87597;-83
2022/02/07 15:00:03;;;;;;;9.48;2.25;;;21.10;46.70;;;;;;4927042;28;88127;-82
2022/02/07 15:02:30;;;;;;;11.20;2.23;;;21.10;47.10;;;;;;4928089;28;90545;-82
2022/02/07 15:04:56;;;;;;;6.97;2.00;;;21.10;47.20;;;;;;4928920;28;88362;-81
2022/02/07 15:07:22;;;;;;;7.72;2.00;;;21.10;47.00;;;;;;4944233;28;87962;-82
2022/02/07 15:09:51;;;;;;;6.72;1.98;;;21.10;47.20;;;;;;4930205;28;87733;-82
2022/02/07 15:12:17;;;;;;;8.63;2.22;;;21.10;47.20;;;;;;4930716;28;88186;-82
2022/02/07 15:14:49;;;;;;;7.72;2.22;;;21.10;47.40;;;;;;4930550;28;87256;-82
2022/02/07 15:17:16;;;;;;;4.68;1.80;;;21.10;47.30;;;;;;4928344;28;87944;-82
2022/02/07 15:19:42;;;;;;;7.00;1.70;;;21.10;48.00;;;;;;4918904;28;90238;-82
2022/02/07 15:22:08;;;;;;;5.35;1.90;;;21.10;47.90;;;;;;4930545;28;87880;-82
2022/02/07 15:24:34;;;;;;;7.60;2.25;;;21.20;48.30;;;;;;4930265;28;88109;-81
2022/02/07 15:27:01;;;;;;;5.95;2.28;;;21.20;48.50;;;;;;4930230;28;88638;-81
2022/02/07 15:29:27;;;;;;;7.38;1.88;;;21.20;48.50;;;;;;4930347;28;87766;-81
2022/02/07 15:32:09;;;;;;;6.60;2.15;;;21.20;48.80;;;;;;4930942;28;87906;-82
2022/02/07 15:34:38;;;;;;;5.15;1.80;;;21.30;48.80;;;;;;4930321;28;87504;-82